Terminal Aerodrome Forecast
Issued by NWS Charleston, WV

Current Version | Previous Version | Graphics & Text | Print | Product List | Glossary On
Versions: 1 2 3 4 5 6 7 8 9 10 11 12 13 14 15 16 17 18 19 20 21 22 23 24 25 26 27 28 29 30 31
699
FTUS41 KRLX 270250 AAA
TAFEKN
TAF AMD
KEKN 270250Z 2703/2724 00000KT 6SM BR SCT100
     FM270500 00000KT 4SM BR VCTS BKN090CB
     FM270600 00000KT 2SM BR BKN025
     FM270800 00000KT 1/4SM FG OVC001
     FM271200 00000KT 2SM BR BKN002 BKN015
     FM271300 00000KT 4SM BR BKN025
     FM271400 00000KT P6SM BKN060=

USA.gov is the U.S. government's official web portal to all federal, state and local government web resources and services.